createdAt,value
2023-03-29T00:00:57.325Z,100980.69
2023-03-29T00:03:59.269Z,100980.59
2023-03-29T00:07:00.351Z,100959.53
2023-03-29T00:10:00.298Z,100979.91
2023-03-29T00:13:00.370Z,100985.09
2023-03-29T00:16:00.338Z,100991.06
2023-03-29T00:19:00.333Z,100993.81
2023-03-29T00:22:00.352Z,100992.13
2023-03-29T00:25:00.314Z,100990.41
2023-03-29T00:28:00.327Z,100979.34
2023-03-29T00:31:00.568Z,100960.75
2023-03-29T00:34:00.333Z,100993.13
2023-03-29T00:37:04.313Z,100983.69
2023-03-29T00:40:04.354Z,100982.81
2023-03-29T00:43:04.309Z,100982.09
2023-03-29T00:46:04.365Z,100984.50
2023-03-29T00:49:06.290Z,100986.44
2023-03-29T00:52:06.314Z,100984.72
2023-03-29T00:55:08.308Z,100975.50
2023-03-29T00:58:09.338Z,100979.03
2023-03-29T01:01:17.349Z,100980.72
2023-03-29T01:04:30.326Z,100969.81
2023-03-29T01:07:35.370Z,100982.59
2023-03-29T01:10:45.298Z,100973.31
2023-03-29T01:14:17.309Z,100989.66
2023-03-29T01:17:17.334Z,100992.31
2023-03-29T01:20:20.305Z,100991.44
2023-03-29T01:23:44.306Z,100996.72
2023-03-29T01:26:58.318Z,100993.22
2023-03-29T01:30:03.291Z,100999.19
2023-03-29T01:33:06.421Z,100994.00
2023-03-29T01:36:41.340Z,100993.22
2023-03-29T01:39:41.349Z,100994.94
2023-03-29T01:42:45.311Z,100998.47
2023-03-29T01:46:30.386Z,100996.87
2023-03-29T01:49:56.330Z,101003.75
2023-03-29T01:53:01.338Z,101003.78
2023-03-29T01:56:05.289Z,101001.31
2023-03-29T01:59:09.371Z,100998.69
2023-03-29T02:02:12.337Z,100994.44
2023-03-29T02:05:12.321Z,100992.72
2023-03-29T02:08:14.335Z,100980.94
2023-03-29T02:11:14.304Z,100976.75
2023-03-29T02:14:14.306Z,100996.41
2023-03-29T02:17:35.363Z,100978.66
2023-03-29T02:20:36.323Z,100993.16
2023-03-29T02:23:47.308Z,101003.41
2023-03-29T02:26:47.294Z,101000.88
2023-03-29T02:29:47.314Z,100995.53
2023-03-29T02:32:52.305Z,101008.38
2023-03-29T02:36:15.337Z,101005.03
2023-03-29T02:39:16.298Z,101005.94
2023-03-29T02:42:17.291Z,101004.13
2023-03-29T02:45:17.334Z,100980.31
2023-03-29T02:48:19.343Z,100994.62
2023-03-29T02:51:25.299Z,101017.28
2023-03-29T02:54:33.321Z,101015.53
2023-03-29T02:57:35.323Z,101017.31
2023-03-29T03:00:35.307Z,101025.81
2023-03-29T03:03:35.394Z,101025.84
2023-03-29T03:06:35.295Z,101012.25
2023-03-29T03:09:36.339Z,101008.81
2023-03-29T03:12:36.316Z,101030.25
2023-03-29T03:15:37.366Z,101032.78
2023-03-29T03:18:37.336Z,101037.94
2023-03-29T03:21:37.311Z,101008.19
2023-03-29T03:24:39.290Z,101035.97
2023-03-29T03:27:40.328Z,101014.75
2023-03-29T03:30:41.305Z,101046.00
2023-03-29T03:33:45.293Z,101033.22
2023-03-29T03:36:46.302Z,101037.63
2023-03-29T03:39:46.288Z,101049.38
2023-03-29T03:42:46.282Z,101060.47
2023-03-29T03:45:46.390Z,101075.84
2023-03-29T03:48:46.297Z,101048.66
2023-03-29T03:51:50.392Z,101063.09
2023-03-29T03:54:53.300Z,101062.94
2023-03-29T03:57:54.266Z,101059.72
2023-03-29T04:00:54.362Z,101056.38
2023-03-29T04:03:56.483Z,101068.41
2023-03-29T04:06:57.262Z,101076.19
2023-03-29T04:09:59.274Z,101085.34
2023-03-29T04:13:00.312Z,101054.00
2023-03-29T04:16:01.893Z,101072.78
2023-03-29T04:19:02.301Z,101083.56
2023-03-29T04:22:02.290Z,101088.34
2023-03-29T04:25:02.281Z,101057.19
2023-03-29T04:28:04.290Z,101081.22
2023-03-29T04:34:04.275Z,101103.50
2023-03-29T04:37:05.334Z,101107.13
2023-03-29T04:40:07.305Z,101104.66
2023-03-29T04:43:10.294Z,101122.69
2023-03-29T04:46:14.366Z,101116.81
2023-03-29T04:49:15.293Z,101112.38
2023-03-29T04:52:15.321Z,101133.47
2023-03-29T04:55:15.334Z,101100.91
2023-03-29T04:58:16.347Z,101136.69
2023-03-29T05:01:16.309Z,101134.19
2023-03-29T05:04:16.337Z,101121.41
2023-03-29T05:07:17.335Z,101128.09
2023-03-29T05:10:18.280Z,101127.19
2023-03-29T05:13:18.285Z,101145.03
2023-03-29T05:16:18.386Z,101149.25
2023-03-29T05:19:20.324Z,101150.00
2023-03-29T05:22:20.312Z,101136.28
2023-03-29T05:25:21.308Z,101133.44
2023-03-29T05:28:21.278Z,101142.66
2023-03-29T05:31:21.353Z,101156.16
2023-03-29T05:34:21.285Z,101164.66
2023-03-29T05:37:22.305Z,101145.72
2023-03-29T05:40:23.285Z,101144.81
2023-03-29T05:43:24.265Z,101131.22
2023-03-29T05:46:24.327Z,101159.88
2023-03-29T05:49:24.308Z,101167.47
2023-03-29T05:52:25.307Z,101162.94
2023-03-29T05:55:19.345Z,101151.81
2023-03-29T05:58:19.343Z,101163.63
2023-03-29T06:01:25.328Z,101157.47
2023-03-29T06:04:25.445Z,101159.88
2023-03-29T06:07:26.291Z,101134.25
2023-03-29T06:10:27.433Z,101139.28
2023-03-29T06:13:29.315Z,101131.53
2023-03-29T06:16:30.441Z,101130.44
2023-03-29T06:19:30.573Z,101152.59
2023-03-29T06:25:26.323Z,101177.38
2023-03-29T06:28:27.291Z,101172.22
2023-03-29T06:31:27.346Z,101185.78
2023-03-29T06:34:27.268Z,101177.81
2023-03-29T06:37:28.367Z,101180.22
2023-03-29T06:40:34.337Z,101168.00
2023-03-29T06:43:34.303Z,101184.84
2023-03-29T06:46:36.340Z,101158.22
2023-03-29T06:49:36.288Z,101188.53
2023-03-29T06:52:36.293Z,101199.84
2023-03-29T06:55:38.297Z,101197.66
2023-03-29T06:58:39.279Z,101197.66
2023-03-29T07:01:44.405Z,101205.34
2023-03-29T07:04:45.465Z,101173.06
2023-03-29T07:08:01.305Z,101201.31
2023-03-29T07:11:05.480Z,101204.84
2023-03-29T07:14:05.319Z,101208.50
2023-03-29T07:17:07.286Z,101206.63
2023-03-29T07:20:08.376Z,101204.84
2023-03-29T07:23:08.334Z,101180.06
2023-03-29T07:26:09.266Z,101211.56
2023-03-29T07:29:09.315Z,101206.50
2023-03-29T07:32:09.318Z,101212.22
2023-03-29T07:35:11.289Z,101217.25
2023-03-29T07:38:12.280Z,101210.16
2023-03-29T07:41:12.281Z,101209.87
2023-03-29T07:44:18.022Z,101213.41
2023-03-29T07:47:17.270Z,101232.03
2023-03-29T07:50:18.275Z,101229.72
2023-03-29T07:53:19.309Z,101221.09
2023-03-29T07:56:20.403Z,101216.75
2023-03-29T07:59:26.300Z,101229.13
2023-03-29T08:02:26.332Z,101208.12
2023-03-29T08:05:39.878Z,101230.88
2023-03-29T08:08:34.284Z,101214.06
2023-03-29T08:11:14.141Z,101210.09
2023-03-29T08:14:04.296Z,101242.25
2023-03-29T08:16:52.353Z,101241.28
2023-03-29T08:19:53.333Z,101242.19
2023-03-29T08:22:55.281Z,101204.75
2023-03-29T08:25:55.289Z,101226.28
2023-03-29T08:29:07.035Z,101234.47
2023-03-29T08:32:07.349Z,101230.41
2023-03-29T08:35:11.317Z,101231.09
2023-03-29T08:38:12.267Z,101238.53
2023-03-29T08:41:12.524Z,101228.47
2023-03-29T08:44:37.731Z,101218.97
2023-03-29T08:48:07.371Z,101198.56
2023-03-29T08:51:17.337Z,101230.25
2023-03-29T08:54:25.376Z,101223.44
2023-03-29T08:57:34.280Z,101216.06
2023-03-29T09:00:53.326Z,101200.66
2023-03-29T09:03:59.364Z,101184.91
2023-03-29T09:07:00.316Z,101198.91
2023-03-29T09:12:56.310Z,101198.66
2023-03-29T09:16:10.366Z,101210.63
2023-03-29T09:19:21.701Z,101195.47
2023-03-29T09:22:45.426Z,101206.66
2023-03-29T09:26:00.339Z,101154.94
2023-03-29T09:29:30.268Z,101190.22
2023-03-29T09:33:12.438Z,101196.69
2023-03-29T09:36:39.327Z,101187.31
2023-03-29T09:39:40.323Z,101170.91
2023-03-29T09:42:42.327Z,101186.75
2023-03-29T09:45:41.116Z,101192.19
2023-03-29T09:48:45.372Z,101192.87
2023-03-29T09:51:47.311Z,101182.84
2023-03-29T09:54:47.258Z,101178.75
2023-03-29T09:57:51.352Z,101188.19
2023-03-29T10:00:55.421Z,101186.41
2023-03-29T10:03:56.283Z,101182.94
2023-03-29T10:06:58.286Z,101186.25
2023-03-29T10:09:59.287Z,101181.81
2023-03-29T10:13:04.317Z,101183.72
2023-03-29T10:16:32.311Z,101182.28
2023-03-29T10:19:35.363Z,101177.31
2023-03-29T10:22:40.292Z,101173.53
2023-03-29T10:25:43.310Z,101174.28
2023-03-29T10:28:46.905Z,101154.06
2023-03-29T10:31:49.295Z,101179.81
2023-03-29T10:34:49.288Z,101163.63
2023-03-29T10:37:53.351Z,101168.97
2023-03-29T10:41:30.239Z,101167.84
2023-03-29T10:44:49.284Z,101183.09
2023-03-29T10:47:49.354Z,101150.00
2023-03-29T10:50:53.369Z,101161.09
2023-03-29T10:53:54.313Z,101162.47
2023-03-29T10:57:01.354Z,101147.03
2023-03-29T11:00:37.510Z,101155.09
2023-03-29T11:04:06.369Z,101147.00
2023-03-29T11:07:19.339Z,101133.38
2023-03-29T11:10:37.347Z,101143.34
2023-03-29T11:13:46.293Z,101145.63
2023-03-29T11:17:01.334Z,101140.25
2023-03-29T11:20:44.332Z,101134.81
2023-03-29T11:24:14.303Z,101058.22
2023-03-29T11:27:52.329Z,101122.69
2023-03-29T11:30:57.387Z,101122.66
2023-03-29T11:34:12.343Z,101119.34
2023-03-29T11:37:28.364Z,101115.50
2023-03-29T11:40:47.528Z,101114.34
2023-03-29T11:44:11.023Z,101114.09
2023-03-29T11:47:13.449Z,101072.72
2023-03-29T11:50:23.006Z,101099.19
2023-03-29T11:53:30.360Z,101074.66
2023-03-29T11:56:40.463Z,101075.03
2023-03-29T11:59:46.322Z,101090.78
2023-03-29T12:03:06.428Z,101078.31
2023-03-29T12:06:15.290Z,101081.41
2023-03-29T12:09:35.332Z,101085.50
2023-03-29T12:13:00.277Z,101079.47
2023-03-29T12:19:33.322Z,101079.50
2023-03-29T12:22:33.345Z,101075.38
2023-03-29T12:25:38.368Z,101072.09
2023-03-29T12:29:13.304Z,101082.66
2023-03-29T12:32:24.376Z,101062.44
2023-03-29T12:35:41.337Z,101066.16
2023-03-29T12:38:43.326Z,101082.41
2023-03-29T12:41:55.332Z,101070.34
2023-03-29T12:45:00.400Z,101074.28
2023-03-29T12:48:02.358Z,101074.28
2023-03-29T12:51:09.312Z,101058.94
2023-03-29T12:54:18.366Z,101069.78
2023-03-29T12:57:41.345Z,101050.34
2023-03-29T13:00:46.326Z,101061.50
2023-03-29T13:04:01.403Z,101055.13
2023-03-29T13:07:02.295Z,101070.06
2023-03-29T13:10:09.349Z,101070.38
2023-03-29T13:13:09.323Z,101064.63
2023-03-29T13:16:09.390Z,101051.00
2023-03-29T13:19:21.348Z,101045.00
2023-03-29T13:22:36.345Z,101055.41
2023-03-29T13:25:54.336Z,101040.47
2023-03-29T13:29:10.314Z,101045.09
2023-03-29T13:32:34.327Z,101034.06
2023-03-29T13:35:34.405Z,101030.97
2023-03-29T13:38:28.838Z,101028.38
2023-03-29T13:41:40.333Z,101034.25
2023-03-29T13:48:35.366Z,101014.56
2023-03-29T13:49:25.067Z,101029.78
2023-03-29T13:51:42.313Z,101021.06
2023-03-29T13:54:46.320Z,101022.53
2023-03-29T13:57:56.372Z,101025.28
2023-03-29T14:01:06.360Z,101015.31
2023-03-29T14:04:12.355Z,101001.28
2023-03-29T14:07:13.366Z,100997.44
2023-03-29T14:10:13.322Z,101006.63
2023-03-29T14:13:13.333Z,101004.03
2023-03-29T14:16:20.391Z,100986.50
2023-03-29T14:19:27.363Z,100998.75
2023-03-29T14:22:30.361Z,101005.59
2023-03-29T14:25:32.366Z,101001.91
2023-03-29T14:28:40.352Z,101007.97
2023-03-29T14:31:45.371Z,101000.19
2023-03-29T14:34:45.314Z,101004.62
2023-03-29T14:37:45.305Z,100998.28
2023-03-29T14:40:45.327Z,101003.44
2023-03-29T14:43:45.364Z,101003.34
2023-03-29T14:46:45.443Z,101000.97
2023-03-29T14:49:45.315Z,100991.94
2023-03-29T14:52:47.217Z,100981.94
2023-03-29T14:55:47.338Z,100999.03
2023-03-29T14:58:49.345Z,101003.91
2023-03-29T15:01:57.374Z,100997.25
2023-03-29T15:04:57.321Z,100991.81
2023-03-29T15:07:57.371Z,100994.13
2023-03-29T15:10:57.313Z,100985.13
2023-03-29T15:13:50.413Z,100983.31
2023-03-29T15:16:56.307Z,100979.84
2023-03-29T15:19:56.337Z,100977.97
2023-03-29T15:23:12.338Z,100979.50
2023-03-29T15:26:20.322Z,100963.72
2023-03-29T15:29:30.293Z,100973.44
2023-03-29T15:32:35.376Z,100975.69
2023-03-29T15:35:37.312Z,100975.81
2023-03-29T15:38:43.937Z,100964.03
2023-03-29T15:41:45.349Z,100960.91
2023-03-29T15:44:51.388Z,100964.53
2023-03-29T15:47:51.354Z,100943.59
2023-03-29T15:50:51.334Z,100971.91
2023-03-29T15:53:51.297Z,100965.25
2023-03-29T15:56:55.684Z,100966.25
2023-03-29T15:59:56.315Z,100947.69
2023-03-29T16:03:05.327Z,100964.94
2023-03-29T16:06:05.514Z,100922.88
2023-03-29T16:09:05.314Z,100967.16
2023-03-29T16:12:07.302Z,100967.31
2023-03-29T16:15:07.355Z,100961.47
2023-03-29T16:18:07.430Z,100958.97
2023-03-29T16:21:08.008Z,100967.84
2023-03-29T16:24:08.317Z,100954.63
2023-03-29T16:27:09.302Z,100960.13
2023-03-29T16:30:09.352Z,100963.94
2023-03-29T16:33:12.351Z,100937.72
2023-03-29T16:36:12.541Z,100957.44
2023-03-29T16:39:12.341Z,100949.16
2023-03-29T16:42:12.344Z,100953.69
2023-03-29T16:45:12.321Z,100950.53
2023-03-29T16:48:12.339Z,100956.97
2023-03-29T16:51:12.345Z,100966.78
2023-03-29T16:54:12.311Z,100969.06
2023-03-29T16:57:13.451Z,100966.94
2023-03-29T17:00:13.296Z,100961.03
2023-03-29T17:03:13.423Z,100965.09
2023-03-29T17:06:13.342Z,100936.69
2023-03-29T17:09:14.348Z,100954.31
2023-03-29T17:12:14.350Z,100968.09
2023-03-29T17:15:14.363Z,100926.72
2023-03-29T17:18:15.341Z,100946.41
2023-03-29T17:21:15.286Z,100956.75
2023-03-29T17:24:16.350Z,100951.72
2023-03-29T17:27:16.297Z,100960.62
2023-03-29T17:30:17.324Z,100959.16
2023-03-29T17:33:19.828Z,100961.16
2023-03-29T17:36:21.340Z,100957.91
2023-03-29T17:39:22.310Z,100944.81
2023-03-29T17:42:22.351Z,100970.53
2023-03-29T17:45:23.301Z,100969.81
2023-03-29T17:48:23.361Z,100970.03
2023-03-29T17:51:23.304Z,100965.97
2023-03-29T17:54:23.361Z,100984.91
2023-03-29T17:57:23.361Z,100963.53
2023-03-29T18:00:27.377Z,100962.78
2023-03-29T18:03:27.430Z,100982.34
2023-03-29T18:06:28.308Z,100978.38
2023-03-29T18:09:30.235Z,100964.91
2023-03-29T18:12:30.319Z,100982.06
2023-03-29T18:15:30.307Z,100967.59
2023-03-29T18:18:30.289Z,100974.62
2023-03-29T18:21:32.324Z,100973.09
2023-03-29T18:24:32.329Z,100969.88
2023-03-29T18:27:32.348Z,100977.59
2023-03-29T18:30:32.310Z,100998.19
2023-03-29T18:33:32.356Z,100996.00
2023-03-29T18:36:32.336Z,101006.22
2023-03-29T18:39:32.323Z,100998.16
2023-03-29T18:42:32.347Z,100990.63
2023-03-29T18:45:32.346Z,100983.88
2023-03-29T18:48:32.357Z,100984.81
2023-03-29T18:51:34.328Z,101006.13
2023-03-29T18:54:34.322Z,100985.91
2023-03-29T18:57:34.458Z,101012.22
2023-03-29T19:00:34.324Z,101013.19
2023-03-29T19:03:34.524Z,101007.16
2023-03-29T19:06:34.339Z,101014.06
2023-03-29T19:09:34.355Z,101013.34
2023-03-29T19:12:34.342Z,101004.16
2023-03-29T19:15:35.334Z,101013.41
2023-03-29T19:18:35.348Z,101005.88
2023-03-29T19:21:35.368Z,101010.13
2023-03-29T19:24:35.342Z,101000.94
2023-03-29T19:27:35.340Z,101024.91
2023-03-29T19:30:36.383Z,101007.81
2023-03-29T19:33:36.386Z,101007.88
2023-03-29T19:36:36.354Z,101001.88
2023-03-29T19:39:29.811Z,101025.84
2023-03-29T19:42:29.322Z,101027.69
2023-03-29T19:45:30.321Z,101029.47
2023-03-29T19:48:31.378Z,101003.06
2023-03-29T19:51:33.329Z,101004.09
2023-03-29T19:54:33.293Z,101011.03
2023-03-29T19:57:33.410Z,100968.56
2023-03-29T20:00:34.409Z,101012.84
2023-03-29T20:03:34.411Z,101002.78
2023-03-29T20:06:34.305Z,101023.28
2023-03-29T20:09:34.444Z,101025.09
2023-03-29T20:12:34.281Z,101027.78
2023-03-29T20:15:34.319Z,101019.31
2023-03-29T20:18:34.317Z,100999.75
2023-03-29T20:21:34.298Z,101015.97
2023-03-29T20:24:35.309Z,101012.50
2023-03-29T20:27:36.302Z,101008.38
2023-03-29T20:30:36.336Z,101014.97
2023-03-29T20:33:36.323Z,101007.22
2023-03-29T20:36:37.421Z,101003.06
2023-03-29T20:39:38.315Z,101007.00
2023-03-29T20:42:41.296Z,100983.34
2023-03-29T20:45:50.108Z,101000.94
2023-03-29T20:49:01.281Z,101004.41
2023-03-29T20:52:10.281Z,101002.91
2023-03-29T20:55:10.345Z,101000.41
2023-03-29T20:58:10.355Z,100966.34
2023-03-29T21:01:11.441Z,100980.81
2023-03-29T21:04:11.299Z,100997.06
2023-03-29T21:07:13.326Z,100985.97
2023-03-29T21:10:14.356Z,100991.25
2023-03-29T21:13:14.310Z,100967.59
2023-03-29T21:16:14.463Z,100981.28
2023-03-29T21:19:14.331Z,100974.38
2023-03-29T21:22:14.330Z,100969.41
2023-03-29T21:25:14.280Z,100949.09
2023-03-29T21:28:14.272Z,100978.56
2023-03-29T21:31:17.376Z,100979.41
2023-03-29T21:34:17.298Z,100982.13
2023-03-29T21:37:17.321Z,100954.88
2023-03-29T21:40:19.291Z,100981.41
2023-03-29T21:43:19.340Z,100953.41
2023-03-29T21:46:19.286Z,100955.78
2023-03-29T21:49:19.331Z,100985.38
2023-03-29T21:52:19.324Z,100982.84
2023-03-29T21:55:19.304Z,100979.50
2023-03-29T21:58:19.337Z,100982.94
2023-03-29T22:01:19.402Z,100986.44
2023-03-29T22:04:33.144Z,100976.97
2023-03-29T22:07:36.289Z,100983.00
2023-03-29T22:10:36.333Z,100983.00
2023-03-29T22:13:38.304Z,100990.00
2023-03-29T22:16:38.356Z,100993.56
2023-03-29T22:19:38.323Z,100982.56
2023-03-29T22:22:38.325Z,100991.09
2023-03-29T22:25:38.340Z,100990.19
2023-03-29T22:28:38.354Z,100984.25
2023-03-29T22:31:39.484Z,100946.16
2023-03-29T22:34:39.341Z,100951.25
2023-03-29T22:37:39.327Z,100971.59
2023-03-29T22:40:40.347Z,100973.41
2023-03-29T22:43:40.325Z,100949.66
2023-03-29T22:46:40.308Z,100979.63
2023-03-29T22:49:40.289Z,100989.03
2023-03-29T22:52:41.308Z,100992.44
2023-03-29T22:55:41.328Z,100991.53
2023-03-29T22:58:41.282Z,100988.16
2023-03-29T23:01:41.356Z,100988.09
2023-03-29T23:04:42.409Z,100978.91
2023-03-29T23:07:43.321Z,100961.94
2023-03-29T23:10:43.311Z,100984.03
2023-03-29T23:13:43.326Z,100984.97
2023-03-29T23:16:44.322Z,100984.22
2023-03-29T23:19:44.307Z,100945.09
2023-03-29T23:22:46.307Z,100980.84
2023-03-29T23:25:46.314Z,100958.78
2023-03-29T23:28:47.274Z,100976.53
2023-03-29T23:31:47.353Z,100977.38
2023-03-29T23:34:47.330Z,100961.25
2023-03-29T23:37:47.277Z,100971.44
2023-03-29T23:40:47.321Z,100974.03
2023-03-29T23:43:49.318Z,100980.03
2023-03-29T23:46:49.367Z,100968.00
2023-03-29T23:49:52.337Z,100974.06
2023-03-29T23:52:53.326Z,100946.16
2023-03-29T23:55:54.272Z,100951.22
2023-03-29T23:58:54.341Z,100952.94
